createdAt,value
2022-09-01T00:00:03.505Z,22.25
2022-09-01T00:02:32.612Z,22.33
2022-09-01T00:05:02.689Z,22.41
2022-09-01T00:07:31.828Z,22.43
2022-09-01T00:10:00.759Z,22.15
2022-09-01T00:12:29.885Z,22.32
2022-09-01T00:14:59.237Z,22.26
2022-09-01T00:17:28.428Z,22.24
2022-09-01T00:19:56.722Z,22.48
2022-09-01T00:22:26.647Z,22.44
2022-09-01T00:24:55.221Z,22.35
2022-09-01T00:27:30.644Z,22.35
2022-09-01T00:29:59.447Z,22.34
2022-09-01T00:32:27.589Z,22.43
2022-09-01T00:34:55.624Z,22.34
2022-09-01T00:37:25.049Z,22.22
2022-09-01T00:39:53.082Z,22.23
2022-09-01T00:42:21.284Z,22.22
2022-09-01T00:44:49.546Z,22.19
2022-09-01T00:47:19.258Z,22.13
2022-09-01T00:49:50.342Z,21.81
2022-09-01T00:52:22.094Z,21.88
2022-09-01T00:54:56.517Z,21.51
2022-09-01T00:57:24.544Z,21.76
2022-09-01T00:59:57.949Z,21.83
2022-09-01T01:02:26.557Z,21.96
2022-09-01T01:05:00.665Z,21.86
2022-09-01T01:07:30.173Z,21.90
2022-09-01T01:09:59.572Z,21.86
2022-09-01T01:12:28.127Z,22.01
2022-09-01T01:14:56.169Z,21.78
2022-09-01T01:17:24.933Z,21.81
2022-09-01T01:20:11.959Z,21.93
2022-09-01T01:23:03.508Z,21.98
2022-09-01T01:25:35.871Z,21.94
2022-09-01T01:28:11.164Z,21.86
2022-09-01T01:30:41.948Z,21.77
2022-09-01T01:33:11.596Z,21.68
2022-09-01T01:35:40.113Z,21.81
2022-09-01T01:38:08.926Z,21.75
2022-09-01T01:40:39.557Z,21.85
2022-09-01T01:43:07.852Z,21.83
2022-09-01T01:45:36.469Z,21.87
2022-09-01T01:48:06.162Z,21.81
2022-09-01T01:50:35.852Z,21.88
2022-09-01T01:53:11.061Z,21.78
2022-09-01T01:55:41.888Z,21.67
2022-09-01T01:58:12.466Z,21.68
2022-09-01T02:00:46.780Z,21.70
2022-09-01T02:03:17.366Z,21.48
2022-09-01T02:05:46.159Z,21.50
2022-09-01T02:08:15.714Z,21.54
2022-09-01T02:10:47.415Z,21.68
2022-09-01T02:13:18.271Z,21.72
2022-09-01T02:15:48.669Z,21.71
2022-09-01T02:18:21.681Z,21.65
2022-09-01T02:20:51.539Z,21.64
2022-09-01T02:23:23.434Z,21.68
2022-09-01T02:26:15.478Z,21.73
2022-09-01T02:28:46.879Z,21.67
2022-09-01T02:31:21.205Z,21.71
2022-09-01T02:33:49.214Z,21.73
2022-09-01T02:36:19.757Z,21.66
2022-09-01T02:38:53.565Z,21.64
2022-09-01T02:41:29.405Z,21.67
2022-09-01T02:43:57.787Z,21.68
2022-09-01T02:46:26.285Z,21.61
2022-09-01T02:48:54.726Z,21.57
2022-09-01T02:51:25.812Z,21.65
2022-09-01T02:53:55.181Z,21.68
2022-09-01T02:56:27.665Z,21.67
2022-09-01T02:58:56.690Z,21.65
2022-09-01T03:01:27.427Z,21.67
2022-09-01T03:03:57.303Z,21.59
2022-09-01T03:06:26.849Z,21.51
2022-09-01T03:08:57.050Z,21.49
2022-09-01T03:11:26.668Z,21.45
2022-09-01T03:13:54.850Z,21.32
2022-09-01T03:16:23.669Z,21.35
2022-09-01T03:18:52.051Z,21.11
2022-09-01T03:21:20.455Z,21.07
2022-09-01T03:23:49.661Z,20.99
2022-09-01T03:26:21.150Z,20.83
2022-09-01T03:28:52.182Z,20.82
2022-09-01T03:31:21.112Z,20.69
2022-09-01T03:33:51.178Z,20.57
2022-09-01T03:36:20.332Z,20.54
2022-09-01T03:38:49.829Z,20.64
2022-09-01T03:41:21.675Z,20.74
2022-09-01T03:43:51.372Z,20.79
2022-09-01T03:46:22.525Z,20.80
2022-09-01T03:48:52.331Z,20.74
2022-09-01T03:51:22.921Z,20.72
2022-09-01T03:53:54.587Z,20.73
2022-09-01T03:56:24.775Z,20.49
2022-09-01T03:58:54.812Z,20.46
2022-09-01T04:01:23.086Z,20.50
2022-09-01T04:03:52.324Z,20.50
2022-09-01T04:06:24.369Z,20.51
2022-09-01T04:08:56.953Z,20.48
2022-09-01T04:11:25.438Z,20.57
2022-09-01T04:13:54.935Z,20.58
2022-09-01T04:16:42.674Z,20.53
2022-09-01T04:19:20.453Z,20.54
2022-09-01T04:21:51.806Z,20.58
2022-09-01T04:24:20.434Z,20.53
2022-09-01T04:26:49.851Z,20.50
2022-09-01T04:29:27.773Z,20.40
2022-09-01T04:31:56.777Z,20.48
2022-09-01T04:34:26.394Z,20.53
2022-09-01T04:36:55.501Z,20.60
2022-09-01T04:39:24.252Z,20.66
2022-09-01T04:41:52.750Z,20.69
2022-09-01T04:44:23.477Z,20.69
2022-09-01T04:46:51.714Z,20.86
2022-09-01T04:49:22.689Z,21.01
2022-09-01T04:51:54.139Z,20.94
2022-09-01T04:54:23.986Z,21.02
2022-09-01T04:56:54.116Z,21.14
2022-09-01T04:59:27.356Z,21.31
2022-09-01T05:01:57.755Z,21.31
2022-09-01T05:04:28.557Z,21.20
2022-09-01T05:06:59.902Z,21.33
2022-09-01T05:09:29.753Z,20.88
2022-09-01T05:12:01.770Z,21.10
2022-09-01T05:14:31.191Z,21.37
2022-09-01T05:17:00.360Z,21.50
2022-09-01T05:19:30.949Z,21.62
2022-09-01T05:22:00.124Z,21.51
2022-09-01T05:24:30.535Z,21.51
2022-09-01T05:26:59.077Z,21.35
2022-09-01T05:29:27.860Z,21.09
2022-09-01T05:31:58.828Z,21.14
2022-09-01T05:34:28.095Z,21.25
2022-09-01T05:36:59.351Z,21.35
2022-09-01T05:39:28.134Z,21.32
2022-09-01T05:41:57.340Z,21.48
2022-09-01T05:44:25.752Z,21.37
2022-09-01T05:46:55.960Z,21.26
2022-09-01T05:49:27.011Z,21.18
2022-09-01T05:51:59.104Z,21.55
2022-09-01T05:54:29.270Z,21.44
2022-09-01T05:57:23.768Z,21.47
2022-09-01T05:59:53.929Z,21.61
2022-09-01T06:02:22.998Z,21.74
2022-09-01T06:04:55.019Z,21.90
2022-09-01T06:07:25.292Z,21.97
2022-09-01T06:09:53.907Z,22.13
2022-09-01T06:12:23.418Z,22.09
2022-09-01T06:14:54.524Z,22.14
2022-09-01T06:17:25.293Z,22.19
2022-09-01T06:19:56.917Z,22.27
2022-09-01T06:22:26.851Z,22.53
2022-09-01T06:25:01.078Z,22.85
2022-09-01T06:27:30.721Z,23.12
2022-09-01T06:29:58.917Z,23.16
2022-09-01T06:32:27.209Z,23.29
2022-09-01T06:34:59.185Z,23.28
2022-09-01T06:37:29.041Z,23.31
2022-09-01T06:39:57.690Z,23.56
2022-09-01T06:42:26.246Z,23.51
2022-09-01T06:44:54.628Z,23.68
2022-09-01T06:47:22.734Z,23.66
2022-09-01T06:49:53.632Z,23.61
2022-09-01T06:52:27.319Z,23.55
2022-09-01T06:54:56.047Z,23.52
2022-09-01T07:00:19.191Z,23.15
2022-09-01T07:02:48.293Z,23.23
2022-09-01T07:08:17.953Z,23.30
2022-09-01T07:13:38.803Z,23.43
2022-09-01T07:18:59.010Z,23.31
2022-09-01T07:21:39.479Z,23.59
2022-09-01T07:24:12.312Z,24.08
2022-09-01T07:26:47.172Z,24.41
2022-09-01T07:29:15.566Z,24.40
2022-09-01T07:32:43.449Z,24.63
2022-09-01T07:34:40.242Z,24.72
2022-09-01T07:38:47.041Z,24.79
2022-09-01T07:45:31.368Z,24.49
2022-09-01T07:48:03.691Z,24.83
2022-09-01T07:53:22.763Z,25.30
2022-09-01T07:55:53.982Z,25.46
2022-09-01T07:58:24.932Z,25.66
2022-09-01T08:00:54.571Z,25.85
2022-09-01T08:03:25.253Z,25.80
2022-09-01T08:05:57.922Z,25.87
2022-09-01T08:08:29.220Z,26.03
2022-09-01T09:32:06.979Z,28.87
2022-09-01T09:34:51.280Z,29.13
2022-09-01T09:37:24.198Z,29.31
2022-09-01T09:40:12.623Z,29.01
2022-09-01T09:42:42.459Z,28.94
2022-09-01T09:45:24.820Z,29.04
2022-09-01T09:47:56.138Z,29.28
2022-09-01T09:50:29.588Z,29.37
2022-09-01T09:53:15.470Z,29.18
2022-09-01T09:55:59.758Z,29.17
2022-09-01T09:58:36.558Z,29.02
2022-09-01T10:01:08.834Z,28.94
2022-09-01T10:03:42.458Z,28.83
2022-09-01T10:06:17.567Z,29.13
2022-09-01T10:08:48.120Z,28.97
2022-09-01T10:11:35.869Z,29.28
2022-09-01T10:14:07.933Z,29.31
2022-09-01T10:16:40.056Z,29.08
2022-09-01T10:19:13.997Z,29.13
2022-09-01T10:21:46.341Z,29.22
2022-09-01T10:24:22.500Z,29.39
2022-09-01T10:26:58.142Z,29.52
2022-09-01T10:29:34.760Z,29.30
2022-09-01T10:32:28.419Z,29.35
2022-09-01T10:34:59.692Z,29.39
2022-09-01T10:37:28.833Z,29.21
2022-09-01T10:40:44.075Z,29.30
2022-09-01T10:43:43.884Z,29.57
2022-09-01T10:46:42.348Z,29.53
2022-09-01T10:49:36.673Z,29.23
2022-09-01T10:52:13.050Z,29.40
2022-09-01T10:54:57.458Z,29.56
2022-09-01T10:57:43.697Z,29.69
2022-09-01T11:04:02.801Z,29.39
2022-09-01T11:07:12.264Z,29.40
2022-09-01T11:09:44.008Z,29.51
2022-09-01T11:12:43.134Z,29.53
2022-09-01T11:15:40.170Z,29.75
2022-09-01T11:18:19.446Z,29.73
2022-09-01T11:20:48.762Z,29.97
2022-09-01T11:23:25.306Z,30.00
2022-09-01T11:28:48.114Z,30.29
2022-09-01T11:31:22.823Z,30.38
2022-09-01T11:34:01.073Z,30.48
2022-09-01T11:36:32.451Z,30.32
2022-09-01T11:39:09.007Z,30.58
2022-09-01T11:41:57.605Z,30.48
2022-09-01T11:44:33.950Z,30.19
2022-09-01T11:47:10.736Z,29.81
2022-09-01T11:49:50.278Z,29.91
2022-09-01T11:52:20.433Z,30.10
2022-09-01T11:54:49.701Z,30.25
2022-09-01T11:57:29.186Z,30.17
2022-09-01T11:59:59.151Z,29.83
2022-09-01T12:02:36.501Z,29.76
2022-09-01T12:05:26.060Z,29.75
2022-09-01T12:07:54.980Z,29.62
2022-09-01T12:10:30.926Z,29.67
2022-09-01T12:13:06.510Z,29.81
2022-09-01T12:15:43.439Z,29.99
2022-09-01T12:18:27.165Z,29.88
2022-09-01T12:20:57.962Z,29.78
2022-09-01T12:23:29.415Z,29.86
2022-09-01T12:26:00.275Z,29.92
2022-09-01T12:28:32.342Z,30.04
2022-09-01T12:31:07.551Z,30.00
2022-09-01T12:33:36.922Z,29.90
2022-09-01T12:36:16.843Z,29.99
2022-09-01T12:38:45.330Z,30.15
2022-09-01T12:41:36.066Z,30.19
2022-09-01T12:44:31.242Z,30.03
2022-09-01T12:47:02.315Z,29.83
2022-09-01T12:49:45.253Z,29.97
2022-09-01T12:52:29.771Z,29.84
2022-09-01T12:55:47.493Z,29.74
2022-09-01T12:58:06.705Z,29.69
2022-09-01T13:00:39.733Z,29.80
2022-09-01T13:03:09.685Z,29.71
2022-09-01T13:05:42.400Z,29.75
2022-09-01T13:08:11.857Z,29.58
2022-09-01T13:10:43.250Z,29.73
2022-09-01T13:13:12.773Z,29.68
2022-09-01T13:15:45.469Z,29.67
2022-09-01T13:18:13.727Z,29.65
2022-09-01T13:20:42.158Z,29.54
2022-09-01T13:23:12.875Z,29.45
2022-09-01T13:25:44.804Z,29.29
2022-09-01T13:28:13.300Z,29.26
2022-09-01T13:30:44.778Z,29.35
2022-09-01T13:33:21.717Z,29.40
2022-09-01T13:35:52.650Z,29.36
2022-09-01T13:38:21.271Z,29.38
2022-09-01T13:40:51.558Z,29.23
2022-09-01T13:43:22.277Z,29.11
2022-09-01T13:45:52.499Z,29.27
2022-09-01T13:48:23.030Z,29.31
2022-09-01T13:53:42.309Z,29.45
2022-09-01T13:56:10.611Z,29.38
2022-09-01T13:58:38.787Z,29.57
2022-09-01T14:01:08.729Z,29.41
2022-09-01T14:03:37.110Z,29.43
2022-09-01T14:06:07.215Z,29.44
2022-09-01T14:08:35.377Z,29.44
2022-09-01T14:11:04.345Z,29.37
2022-09-01T14:13:33.093Z,29.22
2022-09-01T14:16:01.815Z,29.31
2022-09-01T14:18:36.846Z,29.01
2022-09-01T14:21:05.772Z,29.03
2022-09-01T14:23:33.986Z,28.96
2022-09-01T14:26:02.167Z,29.17
2022-09-01T14:28:30.493Z,29.07
2022-09-01T14:33:27.597Z,28.94
2022-09-01T14:35:59.263Z,29.04
2022-09-01T14:38:27.386Z,29.07
2022-09-01T14:40:55.636Z,29.06
2022-09-01T14:43:25.595Z,29.06
2022-09-01T14:46:06.685Z,28.81
2022-09-01T14:48:35.662Z,29.08
2022-09-01T14:51:06.050Z,29.13
2022-09-01T14:53:34.939Z,29.09
2022-09-01T14:56:04.452Z,29.00
2022-09-01T14:58:33.583Z,28.88
2022-09-01T15:01:17.305Z,29.02
2022-09-01T15:03:49.865Z,28.95
2022-09-01T15:06:22.126Z,28.83
2022-09-01T15:08:51.218Z,28.77
2022-09-01T15:11:21.964Z,28.85
2022-09-01T15:13:52.674Z,28.74
2022-09-01T15:16:24.357Z,28.62
2022-09-01T15:18:55.440Z,28.74
2022-09-01T15:21:26.971Z,28.69
2022-09-01T15:23:55.574Z,28.60
2022-09-01T15:26:23.883Z,28.41
2022-09-01T15:28:52.518Z,28.42
2022-09-01T15:31:32.943Z,28.38
2022-09-01T15:34:03.427Z,28.34
2022-09-01T15:36:35.920Z,28.34
2022-09-01T15:39:05.398Z,28.38
2022-09-01T15:41:34.729Z,28.42
2022-09-01T15:44:05.529Z,28.27
2022-09-01T15:46:34.239Z,28.25
2022-09-01T15:49:02.934Z,28.10
2022-09-01T15:51:36.153Z,28.14
2022-09-01T15:54:08.632Z,28.14
2022-09-01T15:56:36.958Z,28.09
2022-09-01T15:59:06.714Z,27.96
2022-09-01T16:01:37.575Z,28.14
2022-09-01T16:04:07.140Z,28.11
2022-09-01T16:06:37.225Z,28.06
2022-09-01T16:09:06.061Z,27.93
2022-09-01T16:11:36.792Z,27.89
2022-09-01T16:14:05.598Z,27.51
2022-09-01T16:16:42.322Z,27.75
2022-09-01T16:19:24.587Z,27.76
2022-09-01T16:22:03.537Z,27.79
2022-09-01T16:24:31.624Z,27.66
2022-09-01T16:26:59.835Z,27.56
2022-09-01T16:29:33.959Z,27.43
2022-09-01T16:32:02.102Z,27.48
2022-09-01T16:34:32.178Z,27.44
2022-09-01T16:37:07.000Z,27.43
2022-09-01T16:39:47.056Z,27.43
2022-09-01T16:42:26.247Z,27.27
2022-09-01T16:45:04.996Z,27.16
2022-09-01T16:47:44.678Z,27.10
2022-09-01T16:50:20.239Z,27.07
2022-09-01T16:53:05.749Z,27.06
2022-09-01T16:55:41.542Z,26.82
2022-09-01T16:58:21.582Z,26.78
2022-09-01T17:01:03.402Z,26.55
2022-09-01T17:03:42.791Z,26.40
2022-09-01T17:06:16.870Z,26.45
2022-09-01T17:08:55.009Z,26.70
2022-09-01T17:11:28.191Z,26.79
2022-09-01T17:13:58.267Z,26.46
2022-09-01T17:16:31.084Z,26.39
2022-09-01T17:19:01.150Z,26.05
2022-09-01T17:21:34.508Z,25.44
2022-09-01T17:24:12.546Z,25.31
2022-09-01T17:26:41.908Z,25.08
2022-09-01T17:29:16.088Z,24.62
2022-09-01T17:31:56.020Z,24.59
2022-09-01T17:34:38.848Z,24.58
2022-09-01T17:37:20.696Z,24.24
2022-09-01T17:40:01.049Z,24.32
2022-09-01T17:42:34.648Z,24.27
2022-09-01T17:45:13.146Z,24.24
2022-09-01T17:47:53.083Z,23.96
2022-09-01T17:50:26.440Z,23.96
2022-09-01T17:53:10.046Z,23.98
2022-09-01T17:55:50.434Z,23.93
2022-09-01T17:58:38.358Z,23.98
2022-09-01T18:01:11.414Z,23.86
2022-09-01T18:03:51.478Z,23.77
2022-09-01T18:06:29.504Z,23.71
2022-09-01T18:08:59.454Z,23.60
2022-09-01T18:11:40.513Z,23.56
2022-09-01T18:14:13.520Z,23.58
2022-09-01T18:16:49.479Z,23.53
2022-09-01T18:19:20.706Z,23.43
2022-09-01T18:21:54.165Z,23.47
2022-09-01T18:24:27.835Z,23.45
2022-09-01T18:26:57.296Z,23.43
2022-09-01T18:29:29.736Z,23.45
2022-09-01T18:32:19.369Z,23.51
2022-09-01T18:34:58.031Z,23.42
2022-09-01T18:37:33.570Z,23.39
2022-09-01T18:40:09.485Z,23.38
2022-09-01T18:42:46.190Z,23.30
2022-09-01T18:45:24.634Z,23.28
2022-09-01T18:48:01.389Z,23.26
2022-09-01T18:50:35.873Z,22.85
2022-09-01T18:53:21.313Z,22.76
2022-09-01T18:55:56.305Z,22.67
2022-09-01T18:58:42.258Z,22.48
2022-09-01T19:01:25.786Z,22.49
2022-09-01T19:03:58.555Z,22.44
2022-09-01T19:06:33.663Z,22.47
2022-09-01T19:09:11.826Z,22.41
2022-09-01T19:11:49.434Z,22.27
2022-09-01T19:14:30.137Z,22.03
2022-09-01T19:17:16.490Z,22.08
2022-09-01T19:19:51.090Z,21.90
2022-09-01T19:22:24.598Z,21.64
2022-09-01T19:25:22.718Z,21.63
2022-09-01T19:27:58.316Z,21.44
2022-09-01T19:30:28.064Z,21.42
2022-09-01T19:32:59.500Z,21.27
2022-09-01T19:35:29.469Z,21.28
2022-09-01T19:37:57.617Z,21.07
2022-09-01T19:40:31.843Z,21.04
2022-09-01T19:43:06.531Z,21.06
2022-09-01T19:45:46.172Z,20.93
2022-09-01T19:48:19.344Z,20.60
2022-09-01T19:50:51.641Z,20.83
2022-09-01T19:53:38.056Z,20.90
2022-09-01T19:56:10.686Z,21.03
2022-09-01T19:58:55.770Z,21.00
2022-09-01T20:01:43.254Z,20.90
2022-09-01T20:04:21.744Z,20.98
2022-09-01T20:06:53.748Z,20.99
2022-09-01T20:09:27.174Z,20.94
2022-09-01T20:12:00.111Z,20.88
2022-09-01T20:14:44.395Z,20.92
2022-09-01T20:17:21.505Z,20.96
2022-09-01T20:19:56.767Z,21.15
2022-09-01T20:22:33.751Z,20.96
2022-09-01T20:25:09.866Z,20.97
2022-09-01T20:27:49.228Z,21.00
2022-09-01T20:30:20.077Z,21.10
2022-09-01T20:32:56.758Z,21.12
2022-09-01T20:35:30.023Z,21.10
2022-09-01T20:38:02.266Z,20.93
2022-09-01T20:40:34.891Z,21.16
2022-09-01T20:43:10.122Z,21.22
2022-09-01T20:45:39.810Z,21.13
2022-09-01T20:48:18.245Z,21.11
2022-09-01T20:50:52.753Z,21.11
2022-09-01T20:53:44.739Z,21.13
2022-09-01T20:56:20.322Z,21.17
2022-09-01T20:58:55.097Z,20.98
2022-09-01T21:01:34.507Z,20.74
2022-09-01T21:04:11.150Z,20.95
2022-09-01T21:06:49.710Z,20.87
2022-09-01T21:09:28.808Z,20.86
2022-09-01T21:12:05.292Z,20.87
2022-09-01T21:14:43.574Z,20.92
2022-09-01T21:17:21.649Z,20.94
2022-09-01T21:20:00.041Z,20.91
2022-09-01T21:22:28.722Z,20.93
2022-09-01T21:24:57.596Z,20.83
2022-09-01T21:27:29.590Z,20.77
2022-09-01T21:30:03.126Z,20.65
2022-09-01T21:32:34.762Z,20.54
2022-09-01T21:35:05.578Z,20.55
2022-09-01T21:37:33.649Z,20.57
2022-09-01T21:40:01.866Z,20.65
2022-09-01T21:42:33.372Z,20.62
2022-09-01T21:45:03.218Z,20.64
2022-09-01T21:47:33.999Z,20.73
2022-09-01T21:50:03.793Z,20.79
2022-09-01T21:52:31.795Z,20.80
2022-09-01T21:54:59.830Z,20.65
2022-09-01T21:57:28.005Z,20.69
2022-09-01T21:59:56.106Z,20.88
2022-09-01T22:02:24.209Z,20.92
2022-09-01T22:04:56.763Z,21.02
2022-09-01T22:07:26.157Z,20.86
2022-09-01T22:09:54.202Z,20.84
2022-09-01T22:12:22.213Z,20.92
2022-09-01T22:14:50.250Z,20.87
2022-09-01T22:17:18.260Z,20.93
2022-09-01T22:19:46.480Z,20.96
2022-09-01T22:22:15.001Z,21.08
2022-09-01T22:24:44.369Z,20.98
2022-09-01T22:27:12.373Z,21.10
2022-09-01T22:29:40.412Z,21.24
2022-09-01T22:32:09.382Z,21.29
2022-09-01T22:34:37.392Z,21.13
2022-09-01T22:37:06.229Z,21.05
2022-09-01T22:39:34.218Z,21.08
2022-09-01T22:42:03.933Z,21.10
2022-09-01T22:44:31.971Z,21.08
2022-09-01T22:47:00.077Z,21.04
2022-09-01T22:49:28.375Z,21.08
2022-09-01T22:51:56.632Z,20.99
2022-09-01T22:54:24.710Z,21.02
2022-09-01T22:56:53.076Z,21.05
2022-09-01T22:59:25.766Z,21.17
2022-09-01T23:01:54.915Z,21.23
2022-09-01T23:04:23.522Z,21.22
2022-09-01T23:06:54.541Z,21.21
2022-09-01T23:09:22.815Z,21.03
2022-09-01T23:11:51.314Z,21.04
2022-09-01T23:14:19.653Z,21.10
2022-09-01T23:16:51.326Z,21.23
2022-09-01T23:19:19.873Z,21.27
2022-09-01T23:21:48.375Z,21.29
2022-09-01T23:24:16.518Z,21.28
2022-09-01T23:26:48.604Z,21.14
2022-09-01T23:29:17.165Z,21.10
2022-09-01T23:31:45.282Z,21.24
2022-09-01T23:34:14.743Z,21.20
2022-09-01T23:36:43.727Z,21.35
2022-09-01T23:39:11.778Z,21.29
2022-09-01T23:41:40.368Z,21.26
2022-09-01T23:44:10.647Z,21.27
2022-09-01T23:46:43.656Z,21.35
2022-09-01T23:49:13.596Z,21.29
2022-09-01T23:51:43.929Z,21.36
2022-09-01T23:54:13.486Z,21.36
2022-09-01T23:56:41.698Z,21.35
2022-09-01T23:59:10.104Z,21.35
